メインページ
METAR-TAF:

METAR-TAF

空港 :

コンゴーニャス空港

サンパウロ, サンパウロ州, ブラジル

緯度: 23-37S, 経度: 046-39W, 海抜: 803m

現時点の気象観測

当レポートは21分前の05:29(UTC)に作成
の風 9kt
気温 19°C
湿度 94%
気圧 1015 hPa
視程10km以上
高度600ftの雲は散在している
高度800ftの曇り

METAR: SBSP 210529Z AUTO 17009KT 9999 SCT006 OVC008 19/18 Q1015

時間: 02:50 (05:50 UTC)

予報

当レポートは3時間50分前の02:00(UTC)に作成
予報は21日の 06時(UTC)から 22日の 06時(UTC)まで有効
南/南東の風 5kt
視程10km以上
高度700ftの千切れ雲あり
確率 40%
21日の 07時(UTC)から 21日の 11時(UTC)まで
視程: 4000m
高度500ftの千切れ雲あり
霧雨, 靄
21日の 12時(UTC)から 21日の 14時(UTC)まで徐々に
南/南東の風 10kt
高度1500ftの千切れ雲あり
確率 40%
21日の 14時(UTC)から 21日の 17時(UTC)まで
高度1200ftの千切れ雲あり
21日の 18時(UTC)から 21日の 20時(UTC)まで徐々に
高度1100ftの千切れ雲あり
確率 40%
21日の 20時(UTC)から 21日の 24時(UTC)まで
南東の風 10kt
高度900ftの千切れ雲あり
22日の 00時(UTC)から 22日の 02時(UTC)まで徐々に
東/南東の風 10kt
高度700ftの千切れ雲あり

TAF: SBSP 210200Z 2106/2206 15005KT 9999 BKN007 TN19/2109Z TX21/2117Z PROB40 2107/2111 4000 DZ BR BKN005 BECMG 2112/2114 15010KT BKN015 PROB40 2114/2117 RA BKN012 BECMG 2118/2120 BKN011 PROB40 2120/2124 13010KT BKN009 BECMG 2200/2202 12010KT BKN007 RMK PHH

4,000以上の空港の気象観測と天気予報(METAR報とTAF報)

利用可能な観測所は地図上に黄色い丸と赤い丸で示す。

丸の上にカーソルを重ねると観測所名を参照できる。

次にクリックすると気象観測と天気予報を参照できる。

マップの切り替え:黒色「×」印の緑ボタンをクリックして拡大、「-」印の緑ボタンをクリックして縮小、緑色の三角印をクリックして隣りの地図に切り替え


METAR-TAF: